Time;durP1;ratioP1;P1;durP2;ratioP2;P2;SDS_P1;SDS_P2;PMS_P1;PMS_P2;Temp;Humidity;BMP_temperature;BMP_pressure;BME280_temperature;BME280_humidity;BME280_pressure;Samples;Min_cycle;Max_cycle;Signal;HPM_P1;HPM_P2
2023/08/15 00:01:20;;;;;;;8.70;6.57;;;20.60;99.90;;;;;;5088823;28;21019;-60
2023/08/15 00:03:50;;;;;;;6.60;5.53;;;20.50;99.90;;;;;;5088244;28;20487;-62
2023/08/15 00:06:18;;;;;;;6.90;6.30;;;20.50;99.90;;;;;;5088456;28;20457;-63
2023/08/15 00:08:45;;;;;;;5.70;5.30;;;20.50;99.90;;;;;;5088571;28;21008;-62
2023/08/15 00:11:12;;;;;;;6.20;5.63;;;20.50;99.90;;;;;;5088610;28;20557;-61
2023/08/15 00:13:39;;;;;;;6.77;6.30;;;20.50;99.90;;;;;;5088491;28;21111;-62
2023/08/15 00:16:06;;;;;;;7.03;6.40;;;20.50;99.90;;;;;;5087646;28;20485;-62
2023/08/15 00:18:32;;;;;;;7.10;5.03;;;20.50;99.90;;;;;;5088217;28;20957;-62
2023/08/15 00:21:00;;;;;;;5.80;5.30;;;20.50;99.90;;;;;;5088477;28;20454;-62
2023/08/15 00:23:27;;;;;;;7.00;5.37;;;20.50;99.90;;;;;;5088402;28;20447;-62
2023/08/15 00:25:54;;;;;;;5.53;4.73;;;20.40;99.90;;;;;;5087844;28;20478;-62
2023/08/15 00:28:21;;;;;;;7.03;6.43;;;20.40;99.90;;;;;;5086422;28;20497;-62
2023/08/15 00:30:48;;;;;;;5.97;5.37;;;20.40;99.90;;;;;;5075320;28;20453;-63
2023/08/15 00:33:15;;;;;;;5.70;5.20;;;20.40;99.90;;;;;;5081784;28;21045;-60
2023/08/15 00:35:43;;;;;;;6.87;6.17;;;20.40;99.90;;;;;;5068098;28;20458;-62
2023/08/15 00:38:11;;;;;;;7.23;6.50;;;20.40;99.90;;;;;;5067297;28;20461;-62
2023/08/15 00:40:39;;;;;;;6.10;5.50;;;20.40;99.90;;;;;;5067837;28;20447;-62
2023/08/15 00:43:06;;;;;;;7.90;6.37;;;20.30;99.90;;;;;;5067653;28;20468;-62
2023/08/15 00:45:34;;;;;;;6.30;5.73;;;20.30;99.90;;;;;;5067973;28;20483;-62
2023/08/15 00:48:01;;;;;;;6.77;6.20;;;20.30;99.90;;;;;;5067307;28;20526;-63
2023/08/15 00:50:28;;;;;;;6.50;6.00;;;20.30;99.90;;;;;;5068036;28;20538;-62
2023/08/15 00:52:55;;;;;;;5.97;5.37;;;20.20;99.90;;;;;;5068092;28;20560;-62
2023/08/15 00:55:24;;;;;;;6.97;6.30;;;20.20;99.90;;;;;;5068038;28;20982;-62
2023/08/15 00:57:51;;;;;;;6.27;5.73;;;20.20;99.90;;;;;;5067192;28;20454;-62
2023/08/15 01:00:18;;;;;;;7.47;6.57;;;20.20;99.90;;;;;;5069155;28;20479;-63
2023/08/15 01:02:45;;;;;;;6.60;6.00;;;20.20;99.90;;;;;;5085524;28;20494;-63
2023/08/15 01:05:15;;;;;;;6.33;5.83;;;20.20;99.90;;;;;;5067862;28;20578;-63
2023/08/15 01:07:43;;;;;;;7.07;6.37;;;20.20;99.90;;;;;;5067162;28;20477;-62
2023/08/15 01:10:10;;;;;;;6.17;5.67;;;20.10;99.90;;;;;;5067733;28;20953;-61
2023/08/15 01:12:45;;;;;;;6.80;5.10;;;20.10;99.90;;;;;;5067823;28;20845;-62
2023/08/15 01:15:16;;;;;;;6.23;5.67;;;20.00;99.90;;;;;;5067735;28;20451;-63
2023/08/15 01:17:49;;;;;;;6.20;5.70;;;20.00;99.90;;;;;;5067095;28;20459;-62
2023/08/15 01:20:34;;;;;;;6.00;5.60;;;20.00;99.90;;;;;;5067847;28;20531;-62
2023/08/15 01:23:02;;;;;;;6.03;5.53;;;20.00;99.90;;;;;;5067811;28;20473;-62
2023/08/15 01:25:32;;;;;;;5.33;4.97;;;20.00;99.90;;;;;;5067871;28;20524;-62
2023/08/15 01:27:59;;;;;;;6.10;5.60;;;19.90;99.90;;;;;;5065956;28;20454;-61
2023/08/15 01:30:26;;;;;;;6.07;5.10;;;19.90;99.90;;;;;;5067394;28;20483;-62
2023/08/15 01:33:01;;;;;;;7.20;6.23;;;19.90;99.90;;;;;;5067117;28;20557;-62
2023/08/15 01:35:32;;;;;;;7.13;6.50;;;19.90;99.90;;;;;;5067436;28;20538;-62
2023/08/15 01:38:03;;;;;;;7.90;6.17;;;19.90;99.90;;;;;;5066495;28;20981;-61
2023/08/15 01:40:35;;;;;;;5.93;5.53;;;19.80;99.90;;;;;;5067587;28;20455;-62
2023/08/15 01:43:03;;;;;;;6.30;5.70;;;19.80;99.90;;;;;;5067210;28;21301;-63
2023/08/15 01:45:31;;;;;;;7.23;5.43;;;19.80;99.90;;;;;;5067289;28;20940;-63
2023/08/15 01:47:58;;;;;;;7.40;5.43;;;19.80;99.90;;;;;;5066705;28;20452;-63
2023/08/15 01:50:25;;;;;;;5.67;5.27;;;19.80;99.90;;;;;;5067472;28;20454;-61
2023/08/15 01:52:52;;;;;;;6.10;5.17;;;19.70;99.90;;;;;;5078785;28;20558;-62
2023/08/15 01:55:19;;;;;;;6.83;6.23;;;19.70;99.90;;;;;;5080435;28;20435;-62
2023/08/15 01:57:47;;;;;;;6.40;5.80;;;19.70;99.90;;;;;;5066412;28;20487;-62
2023/08/15 02:00:15;;;;;;;6.83;6.13;;;19.70;99.90;;;;;;5067468;28;20542;-62
2023/08/15 02:02:41;;;;;;;6.40;5.90;;;19.70;99.90;;;;;;5067349;28;20498;-62
2023/08/15 02:05:08;;;;;;;5.33;4.93;;;19.70;99.90;;;;;;5067283;28;20487;-62
2023/08/15 02:07:35;;;;;;;6.73;6.10;;;19.70;99.90;;;;;;5070009;28;20451;-62
2023/08/15 02:10:02;;;;;;;7.37;5.37;;;19.70;99.90;;;;;;5070664;28;20452;-61
2023/08/15 02:12:29;;;;;;;6.50;6.00;;;19.60;99.90;;;;;;5070850;28;20471;-61
2023/08/15 02:14:57;;;;;;;6.30;5.80;;;19.60;99.90;;;;;;5070501;28;20959;-62
2023/08/15 02:17:24;;;;;;;6.73;6.23;;;19.60;99.90;;;;;;5069956;28;20574;-60
2023/08/15 02:19:51;;;;;;;7.20;6.67;;;19.60;99.90;;;;;;5070816;28;20449;-61
2023/08/15 02:22:18;;;;;;;5.70;5.27;;;19.50;99.90;;;;;;5070593;28;20562;-62
2023/08/15 02:24:45;;;;;;;6.13;5.53;;;19.50;99.90;;;;;;5070228;28;20494;-61
2023/08/15 02:27:11;;;;;;;7.17;6.67;;;19.50;99.90;;;;;;5068697;28;20458;-62
2023/08/15 02:29:38;;;;;;;6.30;5.70;;;19.50;99.90;;;;;;5070447;28;20469;-60
2023/08/15 02:32:06;;;;;;;5.60;5.10;;;19.50;99.90;;;;;;5070278;28;20486;-62
2023/08/15 02:34:33;;;;;;;6.00;5.40;;;19.60;99.90;;;;;;5070227;28;20448;-62
2023/08/15 02:37:00;;;;;;;7.17;6.67;;;19.50;99.90;;;;;;5069621;28;20816;-62
2023/08/15 02:39:27;;;;;;;7.07;6.20;;;19.50;99.90;;;;;;5070123;28;20452;-60
2023/08/15 02:41:54;;;;;;;6.77;6.13;;;19.50;99.90;;;;;;5070342;28;20510;-62
2023/08/15 02:44:20;;;;;;;5.70;5.10;;;19.50;99.90;;;;;;5070210;28;20447;-61
2023/08/15 02:46:47;;;;;;;5.67;5.27;;;19.40;99.90;;;;;;5069518;28;20444;-61
2023/08/15 02:49:15;;;;;;;7.20;6.40;;;19.40;99.90;;;;;;5069921;28;20459;-62
2023/08/15 02:51:42;;;;;;;7.13;6.47;;;19.40;99.90;;;;;;5070065;28;20477;-61
2023/08/15 02:54:09;;;;;;;7.00;6.40;;;19.40;99.90;;;;;;5069750;28;21034;-62
2023/08/15 02:56:36;;;;;;;6.17;5.57;;;19.40;99.90;;;;;;5068997;28;20538;-62
2023/08/15 02:59:03;;;;;;;6.90;6.20;;;19.40;99.90;;;;;;5069754;28;20482;-62
2023/08/15 03:01:30;;;;;;;6.77;6.17;;;19.40;99.90;;;;;;5069580;28;21164;-62
2023/08/15 03:03:57;;;;;;;6.33;5.83;;;19.40;99.90;;;;;;5069606;28;20497;-62
2023/08/15 03:06:25;;;;;;;12.80;6.20;;;19.30;99.90;;;;;;5069045;28;20517;-62
2023/08/15 03:08:52;;;;;;;6.47;5.90;;;19.30;99.90;;;;;;5069773;28;20454;-62
2023/08/15 03:11:19;;;;;;;6.33;5.60;;;19.30;99.90;;;;;;5069751;28;20562;-63
2023/08/15 03:13:46;;;;;;;5.93;5.43;;;19.30;99.90;;;;;;5070210;28;20442;-63
2023/08/15 03:16:12;;;;;;;8.40;6.47;;;19.30;99.90;;;;;;5068985;28;20450;-63
2023/08/15 03:18:39;;;;;;;6.60;6.00;;;19.30;99.90;;;;;;5069490;28;20457;-60
2023/08/15 03:21:08;;;;;;;6.43;6.00;;;19.20;99.90;;;;;;5069553;28;20443;-62
2023/08/15 03:23:37;;;;;;;6.70;6.10;;;19.20;99.90;;;;;;5069450;28;20459;-62
2023/08/15 03:26:06;;;;;;;7.20;6.53;;;19.20;99.90;;;;;;5068527;28;20497;-62
2023/08/15 03:28:33;;;;;;;6.37;5.77;;;19.20;99.90;;;;;;5067298;28;20479;-61
2023/08/15 03:31:05;;;;;;;6.70;6.20;;;19.20;99.90;;;;;;5069020;28;20455;-61
2023/08/15 03:33:32;;;;;;;6.23;5.63;;;19.20;99.90;;;;;;5065619;28;20447;-61
2023/08/15 03:35:59;;;;;;;5.87;5.37;;;19.10;99.90;;;;;;5068158;28;20526;-63
2023/08/15 03:38:25;;;;;;;9.80;6.07;;;19.10;99.90;;;;;;5068924;28;20454;-62
2023/08/15 03:41:03;;;;;;;6.30;5.70;;;19.10;99.90;;;;;;5068689;28;21150;-61
2023/08/15 03:43:29;;;;;;;7.37;6.63;;;19.10;99.90;;;;;;5069123;28;20821;-61
2023/08/15 03:45:56;;;;;;;6.90;6.40;;;19.10;99.90;;;;;;5068020;28;21317;-63
2023/08/15 03:48:23;;;;;;;6.83;6.30;;;19.00;99.90;;;;;;5068533;28;20455;-62
2023/08/15 03:50:50;;;;;;;6.73;6.23;;;19.00;99.90;;;;;;5068437;28;20546;-61
2023/08/15 03:53:17;;;;;;;6.73;6.27;;;19.00;99.90;;;;;;5068795;28;20451;-62
2023/08/15 03:55:44;;;;;;;6.50;6.00;;;19.00;99.90;;;;;;5068706;28;20477;-62
2023/08/15 03:58:12;;;;;;;8.03;6.17;;;19.00;99.90;;;;;;5068025;28;20447;-62
2023/08/15 04:00:39;;;;;;;6.90;6.30;;;18.90;99.90;;;;;;5068727;28;20443;-62
2023/08/15 04:03:06;;;;;;;7.03;6.53;;;18.90;99.90;;;;;;5068547;28;20581;-62
2023/08/15 04:05:32;;;;;;;6.63;5.87;;;18.90;99.90;;;;;;5068505;28;20497;-62
2023/08/15 04:07:59;;;;;;;8.03;7.37;;;18.90;99.90;;;;;;5067708;28;20450;-62
2023/08/15 04:10:26;;;;;;;6.83;6.23;;;18.90;99.90;;;;;;5068573;28;20969;-62
2023/08/15 04:12:53;;;;;;;6.93;6.33;;;18.90;99.90;;;;;;5073336;28;20480;-62
2023/08/15 04:15:21;;;;;;;6.80;6.10;;;18.90;99.90;;;;;;5088569;28;20842;-62
2023/08/15 04:17:48;;;;;;;7.50;6.07;;;18.90;99.90;;;;;;5079096;28;20460;-62
2023/08/15 04:20:15;;;;;;;8.70;6.00;;;18.90;99.90;;;;;;5081804;28;20465;-63
2023/08/15 04:22:41;;;;;;;6.83;6.33;;;18.90;99.90;;;;;;5068359;28;20561;-62
2023/08/15 04:25:09;;;;;;;8.50;6.10;;;19.00;99.90;;;;;;5068559;28;20439;-62
2023/08/15 04:27:37;;;;;;;7.07;6.57;;;19.00;99.90;;;;;;5073191;28;20457;-62
2023/08/15 04:30:05;;;;;;;7.53;6.87;;;19.00;99.90;;;;;;5086657;28;20461;-62
2023/08/15 04:32:33;;;;;;;9.63;6.40;;;19.00;99.90;;;;;;5087215;28;20602;-62
2023/08/15 04:35:00;;;;;;;7.10;6.50;;;19.00;99.90;;;;;;5087891;28;20446;-62
2023/08/15 04:37:26;;;;;;;6.30;5.80;;;19.10;99.90;;;;;;5087400;28;20450;-61
2023/08/15 04:39:53;;;;;;;8.47;7.07;;;19.10;99.90;;;;;;5088294;28;20457;-62
2023/08/15 04:42:20;;;;;;;9.80;6.80;;;19.10;99.90;;;;;;5086280;28;20478;-62
2023/08/15 04:44:47;;;;;;;6.53;5.93;;;19.20;99.90;;;;;;5087932;28;20449;-62
2023/08/15 04:47:15;;;;;;;7.10;6.67;;;19.20;99.90;;;;;;5086373;28;20496;-62
2023/08/15 04:49:43;;;;;;;6.90;6.30;;;19.20;99.90;;;;;;5088058;28;20939;-61
2023/08/15 04:52:10;;;;;;;7.37;6.67;;;19.30;99.90;;;;;;5088159;28;20470;-62
2023/08/15 04:54:37;;;;;;;6.73;6.10;;;19.30;99.90;;;;;;5086275;28;20823;-62
2023/08/15 04:57:05;;;;;;;6.93;6.20;;;19.30;99.90;;;;;;5087021;28;20561;-62
2023/08/15 04:59:31;;;;;;;7.40;6.70;;;19.40;99.90;;;;;;5088094;28;20837;-61
2023/08/15 05:01:58;;;;;;;7.13;6.60;;;19.40;99.90;;;;;;5088169;28;20462;-62
2023/08/15 05:04:25;;;;;;;7.40;6.90;;;19.40;99.90;;;;;;5088091;28;20825;-62
2023/08/15 05:06:53;;;;;;;7.33;6.63;;;19.40;99.90;;;;;;5087035;28;20489;-61
2023/08/15 05:09:20;;;;;;;7.87;7.17;;;19.40;99.90;;;;;;5087615;28;20545;-62
2023/08/15 05:11:47;;;;;;;8.77;7.83;;;19.50;99.90;;;;;;5087744;28;20470;-61
2023/08/15 05:14:15;;;;;;;9.07;7.37;;;19.50;99.90;;;;;;5087665;28;20448;-62
2023/08/15 05:16:41;;;;;;;8.80;7.63;;;19.60;99.90;;;;;;5086536;28;20447;-62
2023/08/15 05:19:08;;;;;;;6.50;5.83;;;19.60;99.90;;;;;;5087509;28;20449;-62
2023/08/15 05:21:35;;;;;;;8.30;7.50;;;19.70;99.90;;;;;;5087604;28;20480;-62
2023/08/15 05:24:03;;;;;;;8.03;7.10;;;19.70;99.90;;;;;;5087661;28;20452;-62
2023/08/15 05:26:30;;;;;;;7.00;6.50;;;19.70;99.90;;;;;;5086743;28;20482;-63
2023/08/15 05:28:57;;;;;;;7.13;6.50;;;19.70;99.90;;;;;;5075680;28;20535;-62
2023/08/15 05:31:24;;;;;;;7.73;7.23;;;19.80;99.90;;;;;;5067494;28;20497;-62
2023/08/15 05:33:51;;;;;;;8.33;7.73;;;19.80;99.90;;;;;;5067650;28;20458;-61
2023/08/15 05:36:17;;;;;;;8.83;7.93;;;19.90;99.90;;;;;;5067041;28;20449;-61
2023/08/15 05:38:44;;;;;;;7.50;6.93;;;19.90;99.90;;;;;;5067535;28;20443;-60
2023/08/15 05:41:12;;;;;;;7.73;7.20;;;19.90;99.90;;;;;;5068899;28;20475;-61
2023/08/15 05:43:39;;;;;;;9.03;8.13;;;19.90;99.90;;;;;;5071181;28;20479;-60
2023/08/15 05:46:06;;;;;;;7.70;7.00;;;20.00;99.90;;;;;;5070480;28;20869;-62
2023/08/15 05:48:33;;;;;;;7.67;6.97;;;20.00;99.90;;;;;;5071172;28;20453;-61
2023/08/15 05:51:00;;;;;;;9.50;8.80;;;20.00;99.90;;;;;;5070859;28;20833;-63
2023/08/15 05:53:26;;;;;;;8.97;8.20;;;20.00;99.90;;;;;;5071100;28;20450;-62
2023/08/15 05:55:53;;;;;;;9.77;8.63;;;20.10;99.90;;;;;;5070795;28;20554;-62
2023/08/15 05:58:21;;;;;;;8.77;7.97;;;20.20;99.90;;;;;;5070798;28;20452;-62
2023/08/15 06:00:48;;;;;;;8.10;7.40;;;20.20;99.90;;;;;;5071063;28;20841;-62
2023/08/15 06:03:15;;;;;;;9.30;8.50;;;20.30;99.90;;;;;;5070820;28;20474;-62
2023/08/15 06:05:42;;;;;;;8.10;7.40;;;20.40;99.90;;;;;;5070630;28;20825;-62
2023/08/15 06:08:09;;;;;;;8.60;7.90;;;20.50;99.90;;;;;;5070327;28;20454;-62
2023/08/15 06:10:35;;;;;;;8.90;8.13;;;20.60;99.90;;;;;;5070730;28;21065;-59
2023/08/15 06:13:02;;;;;;;10.13;9.23;;;20.80;99.90;;;;;;5070720;28;20464;-62
2023/08/15 06:15:31;;;;;;;9.30;8.60;;;21.00;99.90;;;;;;5070494;28;20449;-62
2023/08/15 06:17:57;;;;;;;10.93;10.03;;;21.10;99.90;;;;;;5069805;28;20503;-61
2023/08/15 06:20:24;;;;;;;10.43;9.53;;;21.30;99.90;;;;;;5070616;28;20519;-62
2023/08/15 06:22:51;;;;;;;10.07;9.20;;;21.50;99.90;;;;;;5070341;28;20465;-62
2023/08/15 06:25:18;;;;;;;9.73;9.00;;;21.70;99.90;;;;;;5070526;28;20458;-61
2023/08/15 06:27:45;;;;;;;9.70;9.00;;;21.80;99.90;;;;;;5069555;28;20489;-62
2023/08/15 06:30:13;;;;;;;9.23;8.33;;;21.90;99.90;;;;;;5070352;28;20540;-61
2023/08/15 06:32:41;;;;;;;10.10;9.50;;;21.90;99.90;;;;;;5070023;28;21030;-62
2023/08/15 06:35:09;;;;;;;9.90;9.10;;;22.00;99.90;;;;;;5070301;28;20454;-61
2023/08/15 06:37:36;;;;;;;10.17;9.30;;;22.10;99.90;;;;;;5069138;28;20449;-62
2023/08/15 06:40:04;;;;;;;9.53;8.73;;;22.20;99.90;;;;;;5070272;28;20553;-62
2023/08/15 06:42:31;;;;;;;9.40;8.60;;;22.30;99.90;;;;;;5070088;28;20558;-62
2023/08/15 06:45:07;;;;;;;9.10;8.43;;;22.40;99.90;;;;;;5070568;28;20486;-63
2023/08/15 06:47:34;;;;;;;9.80;9.20;;;22.40;99.90;;;;;;5069233;28;20489;-62
2023/08/15 06:50:02;;;;;;;8.47;7.87;;;22.40;99.90;;;;;;5070016;28;20496;-61
2023/08/15 06:52:29;;;;;;;8.43;7.83;;;22.50;99.90;;;;;;5069401;28;20559;-62
2023/08/15 06:54:56;;;;;;;9.63;8.83;;;22.50;99.90;;;;;;5067976;28;20451;-63
2023/08/15 06:57:23;;;;;;;10.90;9.90;;;22.50;99.90;;;;;;5069442;28;20526;-62
2023/08/15 06:59:49;;;;;;;9.20;8.50;;;22.50;99.90;;;;;;5069692;28;20450;-62
2023/08/15 07:02:16;;;;;;;9.80;9.10;;;22.50;99.90;;;;;;5069862;28;20772;-62
2023/08/15 07:04:45;;;;;;;9.70;8.87;;;22.60;99.90;;;;;;5069860;28;20464;-62
2023/08/15 07:07:13;;;;;;;9.50;8.70;;;22.60;99.90;;;;;;5068605;28;20581;-62
2023/08/15 07:09:40;;;;;;;9.87;9.17;;;22.70;99.90;;;;;;5075558;28;20453;-63
2023/08/15 07:12:07;;;;;;;9.77;8.90;;;22.70;99.90;;;;;;5088863;28;21011;-62
2023/08/15 07:14:34;;;;;;;8.10;7.60;;;22.70;99.90;;;;;;5089986;28;20452;-63
2023/08/15 07:17:01;;;;;;;9.30;8.53;;;22.70;99.90;;;;;;5089084;28;21123;-62
2023/08/15 07:19:28;;;;;;;8.70;7.90;;;22.70;99.90;;;;;;5089638;28;20528;-62
2023/08/15 07:21:55;;;;;;;11.20;10.17;;;22.70;99.90;;;;;;5089508;28;20469;-62
2023/08/15 07:24:23;;;;;;;9.77;9.07;;;22.80;99.90;;;;;;5089582;28;20487;-63
2023/08/15 07:26:50;;;;;;;9.40;8.80;;;23.00;99.90;;;;;;5088844;28;20855;-61
2023/08/15 07:29:17;;;;;;;9.83;8.90;;;23.20;99.90;;;;;;5089292;28;20532;-62
2023/08/15 07:31:44;;;;;;;8.60;7.83;;;23.40;99.90;;;;;;5089294;28;20490;-62
2023/08/15 07:34:11;;;;;;;8.77;8.10;;;23.70;99.90;;;;;;5089532;28;20488;-62
2023/08/15 07:36:38;;;;;;;10.07;9.37;;;23.90;99.90;;;;;;5088826;28;20996;-62
2023/08/15 07:39:05;;;;;;;8.00;7.30;;;24.10;99.90;;;;;;5089502;28;20456;-62
2023/08/15 07:41:33;;;;;;;9.13;7.90;;;24.40;99.90;;;;;;5089264;28;20477;-62
2023/08/15 07:44:00;;;;;;;8.83;8.03;;;24.50;99.90;;;;;;5087328;28;20537;-62
2023/08/15 07:46:27;;;;;;;8.80;8.10;;;24.70;99.90;;;;;;5088408;28;20965;-61
2023/08/15 07:48:54;;;;;;;8.07;7.57;;;24.90;99.90;;;;;;5089447;28;20586;-63
2023/08/15 07:51:22;;;;;;;7.73;7.13;;;25.10;99.90;;;;;;5088994;28;20475;-62
2023/08/15 07:53:49;;;;;;;8.07;7.57;;;25.30;99.90;;;;;;5088945;28;20920;-62
2023/08/15 07:56:15;;;;;;;7.43;6.80;;;25.50;99.90;;;;;;5087708;28;20450;-63
2023/08/15 07:58:44;;;;;;;5.67;5.37;;;25.60;99.90;;;;;;5088333;28;20939;-61
2023/08/15 08:01:11;;;;;;;6.33;5.60;;;25.70;99.90;;;;;;5088106;28;20459;-63
2023/08/15 08:03:39;;;;;;;5.87;4.80;;;25.70;99.90;;;;;;5088637;28;20992;-63
2023/08/15 08:06:06;;;;;;;5.93;5.40;;;25.70;99.90;;;;;;5088209;28;20480;-63
2023/08/15 08:08:33;;;;;;;6.30;5.70;;;25.80;99.90;;;;;;5088807;28;20537;-63
2023/08/15 08:11:00;;;;;;;6.10;5.57;;;25.90;99.90;;;;;;5099031;28;20448;-63
2023/08/15 08:13:27;;;;;;;5.57;5.07;;;26.00;99.90;;;;;;5107598;28;20470;-62
2023/08/15 08:15:55;;;;;;;5.97;5.57;;;26.10;99.90;;;;;;5106793;28;20463;-62
2023/08/15 08:18:22;;;;;;;6.07;5.60;;;26.10;99.90;;;;;;5107347;28;20881;-64
2023/08/15 08:20:49;;;;;;;5.13;4.80;;;26.20;99.90;;;;;;5107319;28;20533;-64
2023/08/15 08:23:16;;;;;;;5.80;5.40;;;26.30;99.90;;;;;;5107897;28;20531;-64
2023/08/15 08:25:43;;;;;;;5.53;5.23;;;26.30;99.90;;;;;;5108367;28;20959;-63
2023/08/15 08:28:10;;;;;;;5.57;5.17;;;26.40;99.90;;;;;;5107642;28;20494;-64
2023/08/15 08:30:37;;;;;;;6.70;5.90;;;26.40;99.90;;;;;;5108281;28;20449;-63
2023/08/15 08:33:06;;;;;;;5.67;5.20;;;26.40;99.90;;;;;;5107380;28;20550;-63
2023/08/15 08:35:32;;;;;;;5.63;5.23;;;26.50;99.90;;;;;;5107853;28;20448;-64
2023/08/15 08:37:59;;;;;;;6.27;5.77;;;26.50;99.90;;;;;;5106812;28;20911;-64
2023/08/15 08:40:27;;;;;;;5.87;5.50;;;26.60;99.90;;;;;;5108421;28;20538;-64
2023/08/15 08:42:54;;;;;;;5.30;4.90;;;26.60;99.90;;;;;;5107591;28;20465;-64
2023/08/15 08:45:26;;;;;;;6.23;5.67;;;26.60;99.90;;;;;;5108364;28;20537;-64
2023/08/15 08:47:53;;;;;;;5.10;4.60;;;26.70;99.90;;;;;;5107011;28;20490;-64
2023/08/15 08:50:22;;;;;;;4.23;3.93;;;26.70;99.90;;;;;;5104872;28;20451;-64
2023/08/15 08:52:49;;;;;;;4.87;4.47;;;26.70;99.90;;;;;;5101339;28;20550;-64
2023/08/15 08:55:17;;;;;;;3.90;3.70;;;26.80;99.90;;;;;;5086341;28;20443;-64
2023/08/15 08:57:48;;;;;;;4.83;4.43;;;26.80;99.90;;;;;;5085774;28;20446;-64
2023/08/15 09:00:17;;;;;;;4.10;3.73;;;26.90;99.90;;;;;;5086775;28;20556;-65
2023/08/15 09:02:45;;;;;;;5.03;4.00;;;27.00;99.90;;;;;;5084904;28;20563;-65
2023/08/15 09:05:12;;;;;;;5.17;4.77;;;27.10;99.90;;;;;;5085748;28;20445;-65
2023/08/15 09:07:42;;;;;;;4.00;3.70;;;27.20;99.90;;;;;;5083750;28;20490;-65
2023/08/15 09:10:09;;;;;;;4.43;4.23;;;27.40;99.90;;;;;;5086721;28;20445;-64
2023/08/15 09:12:38;;;;;;;5.03;4.47;;;27.50;99.90;;;;;;5086211;28;20476;-65
2023/08/15 09:15:06;;;;;;;5.30;4.87;;;27.70;99.90;;;;;;5088071;28;20460;-64
2023/08/15 09:17:33;;;;;;;4.23;4.03;;;27.80;99.90;;;;;;5090255;28;20456;-64
2023/08/15 09:20:13;;;;;;;4.30;4.10;;;28.00;99.90;;;;;;5089726;28;20448;-65
2023/08/15 09:22:44;;;;;;;5.80;5.30;;;28.10;99.90;;;;;;5088634;28;21294;-64
2023/08/15 09:25:12;;;;;;;5.23;4.80;;;28.10;99.90;;;;;;5090331;28;20524;-64
2023/08/15 09:27:40;;;;;;;5.23;4.83;;;28.00;99.90;;;;;;5089571;28;20489;-64
2023/08/15 09:30:10;;;;;;;5.00;4.70;;;28.00;99.90;;;;;;5090748;28;20452;-64
2023/08/15 09:32:39;;;;;;;5.00;4.70;;;28.10;99.90;;;;;;5090012;28;20534;-64
2023/08/15 09:35:06;;;;;;;4.60;4.30;;;28.30;99.90;;;;;;5073845;28;20445;-63
2023/08/15 09:37:33;;;;;;;6.90;5.10;;;28.30;99.90;;;;;;5089775;28;20969;-63
2023/08/15 09:40:02;;;;;;;5.47;4.97;;;28.30;99.90;;;;;;5090589;28;20449;-63
2023/08/15 09:42:29;;;;;;;4.57;4.23;;;28.30;99.90;;;;;;5090036;28;20556;-63
2023/08/15 09:44:56;;;;;;;5.40;5.10;;;28.40;99.90;;;;;;5090138;28;21027;-63
2023/08/15 09:47:24;;;;;;;5.20;4.70;;;28.40;99.90;;;;;;5089858;28;20854;-63
2023/08/15 09:49:53;;;;;;;5.90;5.50;;;28.40;99.90;;;;;;5089042;28;20453;-63
2023/08/15 09:52:20;;;;;;;6.33;5.87;;;28.30;99.90;;;;;;5089361;28;20496;-63
2023/08/15 09:54:47;;;;;;;4.70;4.40;;;28.20;99.90;;;;;;5089582;28;20462;-63
2023/08/15 09:57:16;;;;;;;5.40;5.00;;;28.10;99.90;;;;;;5088449;28;20436;-63
2023/08/15 09:59:43;;;;;;;4.90;4.60;;;28.10;99.90;;;;;;5096500;28;21025;-65
2023/08/15 10:02:19;;;;;;;6.37;5.90;;;28.00;99.90;;;;;;5089708;28;20475;-63
2023/08/15 10:04:47;;;;;;;5.50;5.10;;;27.90;99.90;;;;;;5089797;28;21027;-62
2023/08/15 10:07:14;;;;;;;5.43;5.03;;;27.90;99.90;;;;;;5088933;28;20574;-64
2023/08/15 10:09:42;;;;;;;5.27;4.90;;;27.80;99.90;;;;;;5089679;28;20531;-63
2023/08/15 10:12:10;;;;;;;6.90;5.60;;;27.80;99.90;;;;;;5088331;28;20487;-62
2023/08/15 10:14:39;;;;;;;6.20;5.90;;;27.70;99.90;;;;;;5089010;28;20535;-63
2023/08/15 10:17:06;;;;;;;8.20;5.60;;;27.70;99.90;;;;;;5085809;28;20530;-63
2023/08/15 10:19:33;;;;;;;5.60;5.10;;;27.60;99.90;;;;;;5089405;28;20448;-63
2023/08/15 10:22:04;;;;;;;7.00;6.60;;;27.50;99.90;;;;;;5089212;28;20465;-63
2023/08/15 10:24:30;;;;;;;5.70;5.20;;;27.40;99.90;;;;;;5089109;28;20452;-63
2023/08/15 10:26:59;;;;;;;5.60;5.10;;;27.40;99.90;;;;;;5088249;28;21333;-63
2023/08/15 10:29:26;;;;;;;5.53;5.20;;;27.30;99.90;;;;;;5089990;28;20448;-63
2023/08/15 10:32:00;;;;;;;5.67;4.73;;;27.20;99.90;;;;;;5089253;28;21009;-63
2023/08/15 10:34:33;;;;;;;5.90;5.50;;;27.20;99.90;;;;;;5089622;28;20832;-62
2023/08/15 10:37:30;;;;;;;6.17;5.77;;;27.10;99.90;;;;;;5088903;28;20447;-64
2023/08/15 10:40:08;;;;;;;6.13;5.53;;;27.00;99.90;;;;;;5087469;28;20963;-63
2023/08/15 10:43:10;;;;;;;5.70;5.30;;;27.00;99.90;;;;;;5089225;28;20464;-63
2023/08/15 10:45:39;;;;;;;5.63;5.23;;;26.90;99.90;;;;;;5077604;28;20451;-63
2023/08/15 10:48:08;;;;;;;7.07;6.47;;;26.90;99.90;;;;;;5088758;28;20491;-63
2023/08/15 10:50:36;;;;;;;6.07;5.57;;;26.90;99.90;;;;;;5089240;28;20459;-63
2023/08/15 10:53:04;;;;;;;5.87;5.30;;;26.80;99.90;;;;;;5072574;28;20581;-63
2023/08/15 10:55:35;;;;;;;5.80;5.40;;;26.80;99.90;;;;;;5089320;28;20531;-63
2023/08/15 10:58:05;;;;;;;6.40;5.90;;;26.90;99.90;;;;;;5087022;28;20439;-63
2023/08/15 11:00:33;;;;;;;5.63;5.23;;;26.90;99.90;;;;;;5089277;28;20450;-63
2023/08/15 11:02:59;;;;;;;5.50;5.10;;;26.90;99.90;;;;;;5088884;28;20462;-62
2023/08/15 11:05:28;;;;;;;7.17;5.27;;;26.90;99.90;;;;;;5088969;28;20901;-63
2023/08/15 11:08:08;;;;;;;6.67;5.97;;;26.90;99.90;;;;;;5088170;28;20493;-63
2023/08/15 11:10:35;;;;;;;6.23;5.73;;;26.90;99.90;;;;;;5088960;28;21021;-63
2023/08/15 11:13:02;;;;;;;5.40;5.00;;;26.80;99.90;;;;;;5088576;28;21032;-63
2023/08/15 11:15:32;;;;;;;5.40;4.90;;;26.80;99.90;;;;;;5088685;28;20970;-62
2023/08/15 11:17:59;;;;;;;5.90;5.33;;;26.70;99.90;;;;;;5088398;28;20451;-63
2023/08/15 11:20:30;;;;;;;6.00;5.60;;;26.80;99.90;;;;;;5089110;28;20786;-62
2023/08/15 11:22:57;;;;;;;6.50;5.93;;;26.70;99.90;;;;;;5088364;28;20478;-63
2023/08/15 11:25:24;;;;;;;5.73;5.27;;;26.70;99.90;;;;;;5088899;28;20532;-63
2023/08/15 11:27:51;;;;;;;6.37;5.97;;;26.60;99.90;;;;;;5087860;28;20493;-63
2023/08/15 11:30:19;;;;;;;6.23;5.77;;;26.60;99.90;;;;;;5088494;28;20450;-62
2023/08/15 11:32:46;;;;;;;5.90;5.60;;;26.60;99.90;;;;;;5087809;28;20564;-63
2023/08/15 11:35:13;;;;;;;5.50;5.20;;;26.50;99.90;;;;;;5087997;28;20952;-63
2023/08/15 11:37:43;;;;;;;6.30;5.87;;;26.50;99.90;;;;;;5087234;28;21231;-63
2023/08/15 11:40:10;;;;;;;7.10;5.80;;;26.50;99.90;;;;;;5088069;28;20450;-63
2023/08/15 11:42:37;;;;;;;6.47;6.07;;;26.60;99.90;;;;;;5087932;28;20569;-63
2023/08/15 11:45:19;;;;;;;6.43;5.97;;;26.70;99.90;;;;;;5071580;28;20438;-61
2023/08/15 11:47:59;;;;;;;6.77;6.27;;;26.80;99.90;;;;;;5087132;28;20565;-63
2023/08/15 11:50:28;;;;;;;6.80;5.93;;;26.90;99.90;;;;;;5088673;28;20443;-63
2023/08/15 11:52:56;;;;;;;6.53;6.07;;;27.00;99.90;;;;;;5087753;28;21001;-63
2023/08/15 11:55:24;;;;;;;6.40;5.90;;;27.20;99.90;;;;;;5087924;28;20441;-63
2023/08/15 11:57:52;;;;;;;6.67;6.17;;;27.30;99.90;;;;;;5087218;28;20945;-63
2023/08/15 12:00:19;;;;;;;7.80;7.10;;;27.60;99.90;;;;;;5087712;28;20475;-63
2023/08/15 12:02:48;;;;;;;6.03;5.60;;;27.80;99.90;;;;;;5087606;28;20465;-63
2023/08/15 12:05:16;;;;;;;6.40;6.00;;;28.00;99.90;;;;;;5094231;28;20450;-64
2023/08/15 12:07:43;;;;;;;7.60;7.00;;;28.10;99.90;;;;;;5087073;28;20579;-63
2023/08/15 12:10:13;;;;;;;10.53;7.00;;;28.30;99.90;;;;;;5087354;28;20446;-63
2023/08/15 12:12:42;;;;;;;6.37;5.83;;;28.30;99.90;;;;;;5087317;28;20558;-63
2023/08/15 12:15:10;;;;;;;6.67;6.17;;;28.30;99.90;;;;;;5087041;28;20814;-63
2023/08/15 12:17:38;;;;;;;7.33;6.63;;;28.20;99.90;;;;;;5086306;28;20511;-63
2023/08/15 12:20:07;;;;;;;6.30;5.80;;;28.30;99.90;;;;;;5087245;28;20521;-63
2023/08/15 12:22:34;;;;;;;6.27;5.70;;;28.30;99.90;;;;;;5086907;28;20505;-63
2023/08/15 12:25:01;;;;;;;6.40;5.70;;;28.40;99.90;;;;;;5087026;28;20445;-63
2023/08/15 12:27:30;;;;;;;6.30;5.70;;;28.60;99.90;;;;;;5086273;28;21253;-64
2023/08/15 12:29:57;;;;;;;6.67;6.07;;;28.80;99.90;;;;;;5087216;28;20520;-64
2023/08/15 12:32:25;;;;;;;7.13;6.53;;;29.20;99.90;;;;;;5086560;28;20482;-64
2023/08/15 12:34:51;;;;;;;6.20;5.80;;;29.50;99.90;;;;;;5086180;28;20451;-63
2023/08/15 12:37:18;;;;;;;5.73;5.33;;;29.80;99.90;;;;;;5086240;28;20439;-64
2023/08/15 12:39:45;;;;;;;7.20;5.60;;;29.90;99.90;;;;;;5086942;28;20892;-64
2023/08/15 12:42:14;;;;;;;6.80;6.07;;;30.10;99.90;;;;;;5086754;28;20468;-64
2023/08/15 12:44:43;;;;;;;6.20;5.60;;;30.40;99.90;;;;;;5087324;28;20452;-63
2023/08/15 12:47:10;;;;;;;6.57;6.07;;;30.60;99.90;;;;;;5086194;28;20453;-64
2023/08/15 12:49:37;;;;;;;6.53;5.93;;;30.70;99.90;;;;;;5086282;28;20487;-64